createdAt,value
2019-04-14T00:02:40.491Z,81.30
2019-04-14T00:07:44.967Z,80.79
2019-04-14T00:12:49.251Z,80.76
2019-04-14T00:17:52.540Z,80.59
2019-04-14T00:22:55.516Z,80.87
2019-04-14T00:27:59.273Z,80.25
2019-04-14T00:33:04.231Z,78.10
2019-04-14T00:38:26.737Z,78.33
2019-04-14T00:43:50.614Z,78.78
2019-04-14T00:48:54.052Z,78.55
2019-04-14T00:53:57.939Z,78.19
2019-04-14T00:59:01.383Z,77.51
2019-04-14T01:04:04.275Z,77.72
2019-04-14T01:09:10.793Z,77.89
2019-04-14T01:14:15.128Z,77.94
2019-04-14T01:19:18.285Z,78.22
2019-04-14T01:24:20.716Z,78.89
2019-04-14T01:29:25.432Z,78.85
2019-04-14T01:34:28.252Z,79.24
2019-04-14T01:39:31.165Z,79.53
2019-04-14T01:44:35.173Z,78.88
2019-04-14T01:49:37.991Z,78.34
2019-04-14T01:55:06.971Z,79.07
2019-04-14T02:00:33.734Z,78.20
2019-04-14T02:05:36.846Z,79.11
2019-04-14T02:10:39.710Z,78.81
2019-04-14T02:15:42.587Z,78.50
2019-04-14T02:20:46.849Z,77.68
2019-04-14T02:25:49.631Z,77.50
2019-04-14T02:31:08.085Z,77.39
2019-04-14T02:46:39.963Z,75.55
2019-04-14T02:56:43.366Z,75.54
2019-04-14T03:06:55.152Z,74.75
2019-04-14T03:12:01.675Z,74.35
2019-04-14T03:22:45.948Z,74.57
2019-04-14T03:33:18.035Z,75.29
2019-04-14T03:38:17.072Z,75.56
2019-04-14T03:43:15.387Z,76.17
2019-04-14T03:57:58.384Z,76.31
2019-04-14T04:03:02.083Z,75.73
2019-04-14T04:08:05.226Z,76.32
2019-04-14T04:13:08.399Z,76.40
2019-04-14T04:18:19.895Z,76.99
2019-04-14T04:23:29.369Z,76.96
2019-04-14T04:28:51.710Z,77.08
2019-04-14T04:34:20.843Z,77.62
2019-04-14T04:39:28.000Z,78.28
2019-04-14T04:44:31.338Z,78.39
2019-04-14T04:49:34.646Z,78.62
2019-04-14T04:54:38.474Z,79.29
2019-04-14T04:59:42.856Z,79.42
2019-04-14T05:04:48.310Z,80.06
2019-04-14T05:10:11.004Z,80.59
2019-04-14T05:15:40.253Z,81.04
2019-04-14T05:20:44.138Z,81.07
2019-04-14T05:25:47.404Z,81.50
2019-04-14T05:30:50.445Z,81.42
2019-04-14T05:35:53.632Z,81.47
2019-04-14T05:40:56.831Z,81.86
2019-04-14T05:46:01.209Z,82.34
2019-04-14T05:51:04.629Z,82.83
2019-04-14T05:56:08.146Z,82.63
2019-04-14T06:01:11.787Z,84.00
2019-04-14T06:06:14.959Z,83.93
2019-04-14T06:11:18.154Z,84.75
2019-04-14T06:16:20.979Z,85.08
2019-04-14T06:21:23.840Z,86.04
2019-04-14T06:26:26.746Z,89.88
2019-04-14T06:31:39.890Z,86.33
2019-04-14T06:37:14.347Z,87.21
2019-04-14T06:42:17.829Z,86.09
2019-04-14T06:47:21.052Z,85.59
2019-04-14T06:52:23.551Z,85.75
2019-04-14T06:57:27.069Z,85.53
2019-04-14T07:02:29.870Z,86.71
2019-04-14T07:07:33.493Z,84.62
2019-04-14T07:12:36.839Z,83.44
2019-04-14T07:17:40.356Z,83.95
2019-04-14T07:22:43.743Z,82.86
